Time;durP1;ratioP1;P1;durP2;ratioP2;P2;SDS_P1;SDS_P2;PMS_P1;PMS_P2;Temp;Humidity;BMP_temperature;BMP_pressure;BME280_temperature;BME280_humidity;BME280_pressure;Samples;Min_cycle;Max_cycle;Signal;HPM_P1;HPM_P2
2023/10/17 00:01:13;;;;;;;8.20;5.33;;;;;;;5.54;99.80;101580.69;5029624;28;20203;-72
2023/10/17 00:03:40;;;;;;;11.13;6.03;;;;;;;5.53;99.56;101584.34;5032329;28;20238;-71
2023/10/17 00:06:07;;;;;;;8.33;5.23;;;;;;;5.49;99.69;101590.41;5028677;28;20219;-70
2023/10/17 00:08:33;;;;;;;7.03;5.50;;;;;;;5.44;99.47;101587.78;5029085;28;20551;-72
2023/10/17 00:11:06;;;;;;;6.93;5.00;;;;;;;5.43;99.43;101589.63;5027111;28;20570;-72
2023/10/17 00:13:38;;;;;;;8.33;5.57;;;;;;;5.40;99.36;101584.94;5032864;28;20319;-71
2023/10/17 00:16:11;;;;;;;9.97;5.80;;;;;;;5.41;99.66;101580.47;5030239;28;20206;-71
2023/10/17 00:18:38;;;;;;;7.50;5.13;;;;;;;5.37;99.38;101576.78;5031202;28;20208;-70
2023/10/17 00:21:17;;;;;;;6.97;4.60;;;;;;;5.33;100.00;101584.41;5032380;28;20227;-71
2023/10/17 00:23:44;;;;;;;7.23;5.53;;;;;;;5.30;100.00;101574.47;5029418;28;20237;-71
2023/10/17 00:26:12;;;;;;;8.93;5.40;;;;;;;5.34;100.00;101582.59;5030544;28;20213;-71
2023/10/17 00:28:40;;;;;;;7.37;5.03;;;;;;;5.30;100.00;101576.31;5030467;28;20211;-71
2023/10/17 00:31:07;;;;;;;6.03;4.63;;;;;;;5.30;100.00;101578.91;5030757;28;20312;-71
2023/10/17 00:33:37;;;;;;;7.67;5.10;;;;;;;5.27;100.00;101585.47;5031043;28;20221;-71
2023/10/17 00:36:06;;;;;;;6.90;4.87;;;;;;;5.28;99.99;101581.03;5028028;28;20222;-71
2023/10/17 00:38:37;;;;;;;7.30;4.77;;;;;;;5.30;100.00;101571.88;5030419;28;20207;-70
2023/10/17 00:41:05;;;;;;;6.93;5.23;;;;;;;5.33;100.00;101581.03;5029202;28;22000;-71
2023/10/17 00:43:32;;;;;;;7.93;5.27;;;;;;;5.33;100.00;101573.16;5048295;28;20408;-71
2023/10/17 00:45:58;;;;;;;8.27;5.90;;;;;;;5.29;100.00;101570.28;5028017;28;20207;-70
2023/10/17 00:48:26;;;;;;;7.63;5.37;;;;;;;5.27;100.00;101571.59;5028454;28;20210;-71
2023/10/17 00:50:57;;;;;;;16.57;7.57;;;;;;;5.19;100.00;101566.91;5031612;28;20593;-71
2023/10/17 00:53:26;;;;;;;22.93;11.20;;;;;;;5.15;100.00;101568.47;5048710;28;20241;-70
2023/10/17 00:55:56;;;;;;;23.10;9.73;;;;;;;5.15;99.65;101571.91;5031279;28;20215;-71
2023/10/17 00:58:24;;;;;;;30.07;12.40;;;;;;;5.10;99.73;101563.25;5031814;28;20224;-71
2023/10/17 01:00:53;;;;;;;15.87;8.47;;;;;;;5.12;99.79;101564.56;5034619;28;20205;-70
2023/10/17 01:03:20;;;;;;;17.83;9.03;;;;;;;5.08;99.64;101568.75;5034397;28;20238;-71
2023/10/17 01:05:57;;;;;;;22.17;8.53;;;;;;;5.05;100.00;101566.69;5032975;28;20261;-71
2023/10/17 01:08:36;;;;;;;19.37;8.40;;;;;;;5.02;100.00;101577.66;5030729;28;20801;-71
2023/10/17 01:11:08;;;;;;;17.07;7.80;;;;;;;4.99;100.00;101572.97;5034343;28;20215;-71
2023/10/17 01:13:38;;;;;;;12.50;7.37;;;;;;;4.96;99.91;101570.88;5035606;28;20226;-71
2023/10/17 01:16:07;;;;;;;14.00;7.50;;;;;;;4.93;100.00;101571.38;5028039;28;20209;-71
2023/10/17 01:18:35;;;;;;;13.20;7.17;;;;;;;4.93;100.00;101573.22;5032975;28;20210;-71
2023/10/17 01:21:01;;;;;;;13.23;7.30;;;;;;;4.90;100.00;101576.38;5032074;28;20210;-72
2023/10/17 01:23:29;;;;;;;13.57;7.33;;;;;;;4.88;100.00;101565.38;5031523;28;20243;-70
2023/10/17 01:25:57;;;;;;;14.43;7.53;;;;;;;4.87;100.00;101564.59;5032684;28;20580;-71
2023/10/17 01:28:24;;;;;;;12.07;6.50;;;;;;;4.85;100.00;101566.69;5035387;28;21204;-70
2023/10/17 01:30:55;;;;;;;12.33;7.43;;;;;;;4.85;100.00;101566.69;5048668;28;20203;-71
2023/10/17 01:33:24;;;;;;;13.83;7.47;;;;;;;4.85;100.00;101568.53;5029106;28;20314;-71
2023/10/17 01:35:52;;;;;;;12.17;7.20;;;;;;;4.84;100.00;101569.56;5034448;28;20565;-71
2023/10/17 01:38:19;;;;;;;10.83;7.00;;;;;;;4.85;100.00;101558.84;5031808;28;20219;-71
2023/10/17 01:40:45;;;;;;;11.30;6.63;;;;;;;4.87;100.00;101561.22;5035041;28;20232;-71
2023/10/17 01:43:13;;;;;;;11.03;7.37;;;;;;;4.87;100.00;101555.97;5033689;28;20977;-71
2023/10/17 01:45:42;;;;;;;11.80;6.27;;;;;;;4.86;100.00;101564.84;5032470;28;20214;-71
2023/10/17 01:48:10;;;;;;;9.93;6.00;;;;;;;4.91;100.00;101557.78;5029444;28;20282;-70
2023/10/17 01:50:37;;;;;;;10.47;5.73;;;;;;;4.87;100.00;101558.59;5033238;28;20689;-70
2023/10/17 01:53:12;;;;;;;10.87;5.63;;;;;;;4.90;100.00;101563.28;5033906;28;21208;-71
2023/10/17 01:55:39;;;;;;;12.37;6.10;;;;;;;4.93;100.00;101560.16;5033897;28;20697;-71
2023/10/17 01:58:07;;;;;;;12.60;6.80;;;;;;;4.97;100.00;101556.72;5044879;28;20206;-71
2023/10/17 02:00:38;;;;;;;9.90;6.07;;;;;;;4.96;100.00;101559.59;5034950;28;20580;-71
2023/10/17 02:03:06;;;;;;;14.57;6.80;;;;;;;5.01;100.00;101562.22;5032408;28;20586;-71
2023/10/17 02:05:34;;;;;;;12.20;6.47;;;;;;;5.03;100.00;101554.91;5031586;28;20667;-71
2023/10/17 02:08:01;;;;;;;14.63;6.30;;;;;;;5.04;100.00;101572.97;5028419;28;20569;-71
2023/10/17 02:10:29;;;;;;;14.67;6.60;;;;;;;5.03;100.00;101566.13;5033936;28;21026;-71
2023/10/17 02:12:56;;;;;;;9.90;6.27;;;;;;;5.05;100.00;101574.53;5032095;28;20237;-70
2023/10/17 02:15:23;;;;;;;12.50;6.20;;;;;;;5.09;100.00;101569.53;5048314;28;20320;-71
2023/10/17 02:17:52;;;;;;;9.10;5.30;;;;;;;5.14;100.00;101570.31;5031887;28;20750;-70
2023/10/17 02:20:30;;;;;;;11.33;5.57;;;;;;;5.20;100.00;101560.63;5035035;28;20844;-71
2023/10/17 02:22:57;;;;;;;8.87;6.03;;;;;;;5.22;100.00;101569.78;5031221;28;20270;-71
2023/10/17 02:25:31;;;;;;;9.30;5.43;;;;;;;5.22;100.00;101572.38;5031232;28;20211;-71
2023/10/17 02:27:58;;;;;;;10.47;6.07;;;;;;;5.24;100.00;101572.91;5047448;28;21603;-70
2023/10/17 02:30:25;;;;;;;8.00;5.20;;;;;;;5.28;100.00;101566.09;5029037;28;20203;-70
2023/10/17 02:32:53;;;;;;;7.93;5.83;;;;;;;5.36;100.00;101562.13;5030639;28;20228;-70
2023/10/17 02:35:21;;;;;;;10.90;5.43;;;;;;;5.38;100.00;101571.31;5032532;28;20233;-71
2023/10/17 02:37:48;;;;;;;8.20;5.43;;;;;;;5.40;100.00;101569.22;5031951;28;20214;-70
2023/10/17 02:40:20;;;;;;;8.27;5.17;;;;;;;5.45;100.00;101566.56;5032441;28;20242;-71
2023/10/17 02:42:47;;;;;;;7.73;5.33;;;;;;;5.47;100.00;101567.09;5034602;28;20230;-71
2023/10/17 02:45:14;;;;;;;7.93;5.23;;;;;;;5.54;100.00;101572.81;5027683;28;20276;-71
2023/10/17 02:47:43;;;;;;;7.47;5.30;;;;;;;5.54;100.00;101572.81;5030925;28;20225;-71
2023/10/17 02:50:24;;;;;;;7.83;5.57;;;;;;;5.56;100.00;101575.97;5030628;28;20624;-71
2023/10/17 02:52:52;;;;;;;8.33;5.20;;;;;;;5.58;100.00;101573.06;5034540;28;20223;-70
2023/10/17 02:55:23;;;;;;;7.83;5.27;;;;;;;5.63;100.00;101571.22;5024047;28;20237;-71
2023/10/17 02:57:51;;;;;;;11.57;6.50;;;;;;;5.66;100.00;101569.91;5031814;28;20214;-71
2023/10/17 03:00:23;;;;;;;8.43;5.83;;;;;;;5.67;100.00;101577.50;5029279;28;20213;-71
2023/10/17 03:02:52;;;;;;;10.97;6.67;;;;;;;5.65;100.00;101568.34;5031681;28;20227;-71
2023/10/17 03:05:19;;;;;;;11.17;6.63;;;;;;;5.69;100.00;101569.38;5030661;28;20239;-71
2023/10/17 03:07:49;;;;;;;15.93;9.50;;;;;;;5.71;100.00;101567.25;5046309;28;20632;-71
2023/10/17 03:10:25;;;;;;;13.90;7.60;;;;;;;5.71;100.00;101567.25;5030957;28;20199;-71
2023/10/17 03:13:00;;;;;;;10.20;6.73;;;;;;;5.74;100.00;101575.34;5032367;28;20235;-71
2023/10/17 03:15:29;;;;;;;9.07;5.63;;;;;;;5.76;100.00;101569.84;5025642;28;20207;-71
2023/10/17 03:18:00;;;;;;;11.67;6.53;;;;;;;5.78;100.00;101572.97;5023408;28;20208;-71
2023/10/17 03:20:36;;;;;;;8.93;5.47;;;;;;;5.80;100.00;101560.44;5025720;28;20374;-72
2023/10/17 03:23:04;;;;;;;8.90;5.27;;;;;;;5.82;100.00;101566.97;5026896;28;20223;-70
2023/10/17 03:25:37;;;;;;;7.90;5.33;;;;;;;5.84;100.00;101583.22;5030472;28;20750;-71
2023/10/17 03:28:08;;;;;;;9.10;6.10;;;;;;;5.88;100.00;101575.59;5028220;28;20204;-71
2023/10/17 03:30:35;;;;;;;19.13;10.17;;;;;;;5.92;100.00;101571.38;5025474;28;20215;-71
2023/10/17 03:33:08;;;;;;;19.57;10.57;;;;;;;5.94;100.00;101577.91;5030717;28;20229;-71
2023/10/17 03:35:36;;;;;;;39.90;19.17;;;;;;;5.94;100.00;101569.25;5046868;28;20211;-71
2023/10/17 03:38:04;;;;;;;53.57;23.13;;;;;;;5.91;100.00;101569.81;5031621;28;20218;-71
2023/10/17 03:40:35;;;;;;;41.77;19.63;;;;;;;5.88;100.00;101571.13;5025386;28;20704;-71
2023/10/17 03:43:11;;;;;;;37.30;16.40;;;;;;;5.91;100.00;101573.19;5031577;28;20293;-71
2023/10/17 03:45:43;;;;;;;52.00;26.30;;;;;;;5.94;100.00;101567.44;5032767;28;20211;-70
2023/10/17 03:48:14;;;;;;;64.50;31.70;;;;;;;5.93;100.00;101565.06;5030658;28;20233;-71
2023/10/17 03:50:49;;;;;;;40.47;21.33;;;;;;;5.92;100.00;101572.19;5029567;28;20250;-71
2023/10/17 03:53:24;;;;;;;34.10;15.53;;;;;;;5.92;100.00;101572.19;5029003;28;20219;-71
2023/10/17 03:55:51;;;;;;;31.97;16.50;;;;;;;5.91;100.00;101581.06;5031114;28;20577;-71
2023/10/17 03:58:25;;;;;;;25.80;14.23;;;;;;;5.89;100.00;101585.81;5030982;28;20223;-71
2023/10/17 04:00:52;;;;;;;34.50;18.40;;;;;;;5.92;99.98;101576.63;5028645;28;20274;-71
2023/10/17 04:03:21;;;;;;;40.40;19.77;;;;;;;5.92;100.00;101579.25;5030088;28;20245;-71
2023/10/17 04:05:54;;;;;;;34.63;18.57;;;;;;;5.88;99.72;101572.97;5029169;28;21425;-72
2023/10/17 04:08:26;;;;;;;32.63;19.97;;;;;;;5.84;99.21;101577.97;5028611;28;20712;-70
2023/10/17 04:11:08;;;;;;;29.50;16.27;;;;;;;5.83;98.81;101568.53;5027984;28;20202;-71
2023/10/17 04:13:35;;;;;;;23.77;13.93;;;;;;;5.83;99.30;101580.84;5031153;28;20274;-71
2023/10/17 04:16:08;;;;;;;29.57;16.23;;;;;;;5.80;99.50;101586.66;5026464;28;20191;-71
2023/10/17 04:18:37;;;;;;;26.60;14.73;;;;;;;5.76;98.76;101583.72;5027587;28;20721;-71
2023/10/17 04:21:17;;;;;;;25.97;15.17;;;;;;;5.76;98.84;101577.72;5028446;28;20207;-71
2023/10/17 04:23:44;;;;;;;27.10;15.30;;;;;;;5.76;99.24;101572.47;5031715;28;20735;-71
2023/10/17 04:26:17;;;;;;;28.23;13.60;;;;;;;5.76;98.84;101580.34;5033389;28;20218;-71
2023/10/17 04:28:48;;;;;;;39.17;19.47;;;;;;;5.71;99.44;101575.91;5032453;28;20605;-71
2023/10/17 04:31:21;;;;;;;40.40;17.93;;;;;;;5.72;99.16;101574.06;5032429;28;20201;-70
2023/10/17 04:33:48;;;;;;;32.73;17.50;;;;;;;5.72;99.76;101568.81;5033589;28;20237;-70
2023/10/17 04:36:17;;;;;;;32.37;16.13;;;;;;;5.71;100.00;101568.06;5031606;28;20210;-71
2023/10/17 04:38:46;;;;;;;36.57;18.27;;;;;;;5.66;99.98;101565.44;5036516;28;20450;-72
2023/10/17 04:41:17;;;;;;;25.53;15.43;;;;;;;5.67;99.63;101564.41;5036473;28;20210;-70
2023/10/17 04:43:54;;;;;;;31.43;16.53;;;;;;;5.64;100.00;101569.41;5034719;28;20776;-71
2023/10/17 04:46:25;;;;;;;26.17;14.80;;;;;;;5.62;100.00;101576.72;5028841;28;20673;-71
2023/10/17 04:48:52;;;;;;;26.27;15.07;;;;;;;5.60;99.72;101578.84;5031118;28;20211;-70
2023/10/17 04:51:26;;;;;;;23.93;13.53;;;;;;;5.60;100.00;101576.22;5032556;28;20207;-71
2023/10/17 04:53:55;;;;;;;25.20;13.10;;;;;;;5.59;99.61;101583.28;5030146;28;20234;-71
2023/10/17 04:56:22;;;;;;;23.33;12.93;;;;;;;5.59;99.49;101579.88;5030819;28;20201;-71
2023/10/17 04:58:53;;;;;;;20.97;12.10;;;;;;;5.59;100.00;101575.41;5033288;28;24596;-71
2023/10/17 05:01:36;;;;;;;21.60;12.00;;;;;;;5.64;100.00;101579.88;5026705;28;20508;-71
2023/10/17 05:04:12;;;;;;;22.43;12.43;;;;;;;5.60;100.00;101578.84;5034703;28;20249;-71
2023/10/17 05:07:08;;;;;;;22.70;10.83;;;;;;;5.60;100.00;101578.84;5037755;28;20357;-72
2023/10/17 06:18:17;;;;;;;17.07;12.03;;;;;;;5.84;100.00;101622.53;5037235;28;20314;-71
2023/10/17 06:26:46;;;;;;;23.63;14.30;;;;;;;5.97;100.00;101634.28;5038420;28;20304;-71
2023/10/17 06:30:05;;;;;;;22.27;13.77;;;;;;;6.01;100.00;101638.69;5036416;28;20203;-70
2023/10/17 06:31:57;;;;;;;26.53;17.90;;;;;;;6.05;100.00;101646.81;5037231;28;20210;-70
2023/10/17 06:34:23;;;;;;;21.30;14.80;;;;;;;6.10;100.00;101639.72;5035197;28;20258;-71
2023/10/17 06:36:58;;;;;;;22.13;14.83;;;;;;;6.13;100.00;101636.56;5037517;28;20200;-69
2023/10/17 06:39:26;;;;;;;17.33;11.93;;;;;;;6.15;100.00;101639.69;5031976;28;20366;-70
2023/10/17 06:41:55;;;;;;;18.10;11.03;;;;;;;6.19;100.00;101642.53;5038728;28;20222;-70
2023/10/17 06:44:23;;;;;;;15.57;10.40;;;;;;;6.23;100.00;101638.34;5039404;28;20231;-70
2023/10/17 06:46:49;;;;;;;17.90;10.67;;;;;;;6.25;100.00;101644.09;5039848;28;20203;-70
2023/10/17 06:49:30;;;;;;;15.30;10.03;;;;;;;6.28;100.00;101651.44;5033846;28;20704;-69
2023/10/17 06:52:07;;;;;;;13.30;8.70;;;;;;;6.32;100.00;101645.34;5037054;28;20210;-70
2023/10/17 06:54:40;;;;;;;14.10;9.47;;;;;;;6.34;100.00;101643.25;5036070;28;20250;-70
2023/10/17 06:57:18;;;;;;;14.23;9.20;;;;;;;6.38;100.00;101643.50;5039447;28;20264;-71
2023/10/17 06:59:46;;;;;;;15.30;9.40;;;;;;;6.41;100.00;101642.94;5033886;28;20218;-69
2023/10/17 07:02:18;;;;;;;12.93;9.27;;;;;;;6.45;100.00;101646.59;5037298;28;20298;-69
2023/10/17 07:04:45;;;;;;;14.77;9.33;;;;;;;6.48;100.00;101656.56;5041367;28;20262;-70
2023/10/17 07:07:13;;;;;;;12.90;8.83;;;;;;;6.53;100.00;101656.53;5037569;28;20214;-70
2023/10/17 07:09:39;;;;;;;13.40;8.83;;;;;;;6.57;100.00;101663.56;5033751;28;20283;-69
2023/10/17 07:12:13;;;;;;;14.27;8.83;;;;;;;6.61;100.00;101661.97;5039857;28;20207;-69
2023/10/17 07:14:40;;;;;;;15.03;8.47;;;;;;;6.67;100.00;101665.34;5037739;28;20492;-71
2023/10/17 07:17:17;;;;;;;15.10;9.27;;;;;;;6.74;100.00;101678.97;5039098;28;20210;-70
2023/10/17 07:19:47;;;;;;;17.57;9.33;;;;;;;6.80;100.00;101673.41;5035360;28;21551;-71
2023/10/17 07:22:15;;;;;;;13.90;9.83;;;;;;;6.88;100.00;101678.06;5038798;28;20215;-70
2023/10/17 07:24:48;;;;;;;16.90;9.90;;;;;;;6.94;100.00;101676.97;5028526;28;20219;-71
2023/10/17 07:27:21;;;;;;;16.23;10.13;;;;;;;7.02;100.00;101683.47;5039621;28;20290;-70
2023/10/17 07:29:58;;;;;;;14.33;10.13;;;;;;;7.10;100.00;101688.16;5032725;28;20673;-71
2023/10/17 07:32:32;;;;;;;18.50;10.77;;;;;;;7.18;100.00;101680.44;5035627;28;20317;-70
2023/10/17 07:35:01;;;;;;;15.20;10.20;;;;;;;7.26;100.00;101679.06;5037011;28;20735;-70
2023/10/17 07:37:33;;;;;;;15.20;10.27;;;;;;;7.33;100.00;101682.16;5032747;28;20630;-69
2023/10/17 07:42:55;;;;;;;16.47;10.77;;;;;;;7.49;99.99;101673.84;5095478;27;20695;-70
2023/10/17 07:45:22;;;;;;;20.77;11.10;;;;;;;7.61;100.00;101678.75;5075312;28;20277;-70
2023/10/17 07:47:54;;;;;;;20.23;13.33;;;;;;;7.70;100.00;101671.78;5076440;28;20259;-70
2023/10/17 07:50:25;;;;;;;20.03;13.13;;;;;;;7.79;100.00;101681.44;5092868;28;20208;-70
2023/10/17 07:52:54;;;;;;;20.13;12.67;;;;;;;7.89;100.00;101680.53;5068940;28;20234;-70
2023/10/17 07:55:23;;;;;;;21.60;12.70;;;;;;;8.00;99.89;101682.75;5063311;28;20209;-69
2023/10/17 07:57:52;;;;;;;24.13;12.80;;;;;;;8.09;99.85;101675.81;5071832;28;20211;-70
2023/10/17 08:00:27;;;;;;;23.03;13.03;;;;;;;8.20;99.34;101687.81;5069956;28;20207;-71
2023/10/17 08:02:55;;;;;;;18.87;12.10;;;;;;;8.29;98.77;101685.34;5071906;28;20602;-71
2023/10/17 08:05:23;;;;;;;18.43;12.47;;;;;;;8.37;98.25;101685.47;5071057;28;20673;-70
2023/10/17 08:07:50;;;;;;;21.80;13.03;;;;;;;8.43;98.05;101684.34;5070784;28;20206;-69
2023/10/17 08:10:29;;;;;;;22.67;12.53;;;;;;;8.49;97.85;101687.69;5065423;28;20223;-70
2023/10/17 08:12:57;;;;;;;23.40;13.57;;;;;;;8.58;97.43;101686.78;5072559;28;20239;-69
2023/10/17 08:15:30;;;;;;;21.70;13.30;;;;;;;8.65;97.10;101683.78;5073137;28;20210;-71
2023/10/17 08:17:58;;;;;;;21.07;12.37;;;;;;;8.75;96.63;101696.81;5076726;28;20208;-70
2023/10/17 08:23:20;;;;;;;20.67;12.03;;;;;;;8.90;95.65;101691.31;5045463;27;20678;-71
2023/10/17 08:25:52;;;;;;;21.27;12.63;;;;;;;8.99;94.90;101689.56;5019073;28;20199;-71
2023/10/17 08:28:33;;;;;;;21.77;12.67;;;;;;;9.08;94.15;101691.28;5022909;28;20206;-71
2023/10/17 08:31:17;;;;;;;21.07;12.77;;;;;;;9.17;94.14;101694.81;5020678;28;20573;-72
2023/10/17 08:33:44;;;;;;;25.97;13.10;;;;;;;9.29;93.93;101700.41;5014818;28;20226;-71
2023/10/17 08:36:10;;;;;;;25.17;14.57;;;;;;;9.38;93.02;101690.75;5035870;22;20242;-72
2023/10/17 08:38:40;;;;;;;23.67;15.23;;;;;;;9.48;93.30;101687.19;5017304;28;20297;-73
2023/10/17 08:41:05;;;;;;;24.43;14.53;;;;;;;9.57;91.87;101688.84;5027792;28;20211;-72
2023/10/17 08:43:32;;;;;;;26.03;15.43;;;;;;;9.65;91.35;101698.72;5015954;28;20201;-72
2023/10/17 08:45:59;;;;;;;27.73;15.80;;;;;;;9.72;90.83;101688.56;5010953;28;20335;-72
2023/10/17 08:48:26;;;;;;;26.23;14.40;;;;;;;9.81;90.07;101686.81;4995230;28;20346;-72
2023/10/17 08:50:55;;;;;;;27.97;14.03;;;;;;;9.92;90.17;101684.75;5005728;28;20494;-72
2023/10/17 08:53:23;;;;;;;24.87;14.13;;;;;;;10.02;90.55;101687.97;5001362;28;20229;-71
2023/10/17 08:55:52;;;;;;;22.63;13.80;;;;;;;10.10;88.73;101681.25;5004965;28;21462;-71
2023/10/17 08:58:24;;;;;;;23.90;14.00;;;;;;;10.19;89.24;101674.97;4999882;28;20565;-72
2023/10/17 09:00:55;;;;;;;23.17;13.80;;;;;;;10.27;88.55;101679.59;4999553;28;20276;-72
2023/10/17 09:03:23;;;;;;;20.83;12.57;;;;;;;10.35;87.70;101673.59;5000064;28;20276;-71
2023/10/17 09:06:07;;;;;;;25.97;13.53;;;;;;;10.43;86.43;101677.38;4995608;28;20230;-72
2023/10/17 09:08:52;;;;;;;18.67;11.77;;;;;;;10.49;85.92;101671.69;5001000;28;20654;-71
2023/10/17 09:14:17;;;;;;;19.70;13.90;;;;;;;10.63;83.92;101684.84;5000573;28;20223;-71
2023/10/17 09:16:49;;;;;;;19.73;13.03;;;;;;;10.70;83.61;101690.50;4996373;28;20228;-71
2023/10/17 09:19:20;;;;;;;18.43;11.30;;;;;;;10.72;83.37;101689.13;5016201;28;20209;-71
2023/10/17 09:21:49;;;;;;;16.10;11.30;;;;;;;10.78;82.72;101684.50;4996070;28;20230;-71
2023/10/17 09:24:35;;;;;;;14.33;10.67;;;;;;;10.83;84.32;101681.75;5011320;28;20293;-71
2023/10/17 09:27:10;;;;;;;12.27;8.87;;;;;;;10.88;83.54;101684.28;5003691;28;20281;-71
2023/10/17 09:29:48;;;;;;;13.03;10.17;;;;;;;10.90;82.35;101674.97;4998706;28;20211;-71
2023/10/17 09:32:33;;;;;;;14.83;9.10;;;;;;;10.90;82.08;101671.53;5010547;28;20221;-71
2023/10/17 09:35:03;;;;;;;15.90;9.90;;;;;;;10.92;81.65;101672.03;4982378;28;20204;-71
2023/10/17 09:37:32;;;;;;;17.47;8.83;;;;;;;10.94;81.32;101672.50;4984939;28;20559;-71
2023/10/17 09:40:03;;;;;;;12.77;8.13;;;;;;;10.96;80.79;101673.75;4982965;28;20651;-71
2023/10/17 09:42:30;;;;;;;10.43;7.43;;;;;;;10.99;82.11;101669.75;4982179;28;20221;-72
2023/10/17 09:44:57;;;;;;;10.20;8.03;;;;;;;11.05;82.63;101661.41;4987076;28;20199;-71
2023/10/17 09:47:28;;;;;;;9.33;7.10;;;;;;;11.11;81.90;101659.38;4986185;28;20704;-71
2023/10/17 09:49:59;;;;;;;11.33;6.97;;;;;;;11.14;80.96;101666.72;4987774;28;20250;-71
2023/10/17 09:52:31;;;;;;;9.40;6.70;;;;;;;11.19;80.71;101670.00;4984350;28;20212;-71
2023/10/17 09:54:58;;;;;;;13.27;6.60;;;;;;;11.23;80.00;101668.31;4987486;28;20202;-72
2023/10/17 09:57:25;;;;;;;9.80;6.10;;;;;;;11.29;79.42;101659.19;4990696;28;20208;-72
2023/10/17 10:00:04;;;;;;;8.00;5.63;;;;;;;11.35;78.48;101665.13;4987791;28;20212;-72
2023/10/17 10:02:34;;;;;;;6.87;5.87;;;;;;;11.38;78.22;101660.00;4986886;28;20224;-71
2023/10/17 10:05:19;;;;;;;9.07;4.90;;;;;;;11.43;79.40;101649.31;4987772;28;20584;-71
2023/10/17 10:07:45;;;;;;;5.60;4.67;;;;;;;11.45;77.29;101647.13;4994103;28;20698;-71
2023/10/17 10:10:49;;;;;;;5.97;3.70;;;;;;;11.44;73.99;101644.81;4988583;28;20692;-71
2023/10/17 10:13:17;;;;;;;5.77;4.50;;;;;;;11.46;78.30;101646.06;4987501;28;20193;-71
2023/10/17 10:15:55;;;;;;;6.77;3.93;;;;;;;11.48;77.75;101646.53;4984994;28;20753;-71
2023/10/17 10:18:54;;;;;;;6.43;3.97;;;;;;;11.51;77.33;101637.19;4984507;28;20209;-71
2023/10/17 10:21:22;;;;;;;7.27;4.37;;;;;;;11.53;77.72;101630.53;4985819;28;20213;-71
2023/10/17 10:23:53;;;;;;;5.43;4.00;;;;;;;11.57;77.97;101631.47;4985682;28;20271;-71
2023/10/17 10:26:21;;;;;;;6.30;3.90;;;;;;;11.61;78.04;101621.88;4984566;28;20234;-71
2023/10/17 10:28:48;;;;;;;4.23;3.83;;;;;;;11.64;75.09;101625.78;4981001;28;20220;-71
2023/10/17 10:31:39;;;;;;;4.70;3.67;;;;;;;11.68;75.51;101630.13;4978226;28;20233;-71
2023/10/17 10:34:07;;;;;;;6.10;3.43;;;;;;;11.69;75.11;101618.47;4984658;28;20691;-71
2023/10/17 10:36:35;;;;;;;3.40;3.10;;;;;;;11.71;73.25;101607.56;4984992;28;21028;-71
2023/10/17 10:39:12;;;;;;;3.67;3.10;;;;;;;11.74;71.87;101606.97;4988802;28;20215;-71
2023/10/17 10:41:39;;;;;;;6.03;3.07;;;;;;;11.80;73.06;101611.03;4978653;28;20215;-71
2023/10/17 10:44:06;;;;;;;5.20;3.80;;;;;;;11.84;74.76;101607.44;4995354;28;20247;-71
2023/10/17 10:46:33;;;;;;;6.57;3.83;;;;;;;11.90;73.93;101602.81;4980548;28;20232;-71
2023/10/17 10:49:01;;;;;;;7.43;3.50;;;;;;;11.93;72.91;101600.31;4998977;28;20208;-71
2023/10/17 10:51:27;;;;;;;8.60;3.73;;;;;;;11.98;71.82;101599.38;4982346;28;20703;-71
2023/10/17 10:53:56;;;;;;;5.13;3.33;;;;;;;12.06;73.84;101607.31;4984439;28;20208;-72
2023/10/17 10:56:24;;;;;;;4.27;3.30;;;;;;;12.11;72.99;101601.13;4983931;28;20244;-71
2023/10/17 10:58:55;;;;;;;5.47;2.90;;;;;;;12.13;72.64;101599.72;4980078;28;20323;-71
2023/10/17 11:01:22;;;;;;;4.33;2.37;;;;;;;12.17;69.73;101599.88;4994350;28;20221;-72
2023/10/17 11:03:50;;;;;;;3.93;2.80;;;;;;;12.22;71.07;101599.72;4983454;28;20232;-71
2023/10/17 11:06:24;;;;;;;4.73;2.10;;;;;;;12.25;71.56;101599.88;4986161;28;20571;-71
2023/10/17 11:08:51;;;;;;;3.20;2.70;;;;;;;12.30;70.58;101599.72;4977109;28;20217;-71
2023/10/17 11:11:19;;;;;;;3.63;3.07;;;;;;;12.34;73.18;101592.72;4980888;28;20635;-71
2023/10/17 11:13:47;;;;;;;5.13;4.60;;;;;;;12.39;79.60;101584.59;4983113;28;20218;-71
2023/10/17 11:16:17;;;;;;;4.07;3.40;;;;;;;12.43;77.71;101587.41;4981483;28;20292;-71
2023/10/17 11:18:44;;;;;;;4.37;3.97;;;;;;;12.46;78.41;101584.13;4977769;28;20213;-71
2023/10/17 11:21:11;;;;;;;6.80;3.40;;;;;;;12.43;72.99;101585.50;4985346;28;20346;-71
2023/10/17 11:23:41;;;;;;;4.73;3.17;;;;;;;12.45;72.94;101585.22;4978424;28;20675;-71
2023/10/17 11:26:11;;;;;;;3.40;2.60;;;;;;;12.46;70.47;101578.81;4978970;28;20220;-71
2023/10/17 11:28:41;;;;;;;3.70;2.60;;;;;;;12.47;70.52;101580.41;4978402;28;20205;-71
2023/10/17 11:31:12;;;;;;;4.47;2.87;;;;;;;12.46;71.19;101579.59;4981234;28;20201;-72
2023/10/17 11:33:45;;;;;;;2.77;2.50;;;;;;;12.44;67.00;101581.00;4981467;28;20626;-71
2023/10/17 11:36:16;;;;;;;3.93;2.40;;;;;;;12.45;68.57;101579.91;4985169;28;20279;-72
2023/10/17 11:38:46;;;;;;;3.77;3.10;;;;;;;12.46;67.85;101579.59;4977646;28;20219;-71
2023/10/17 11:41:15;;;;;;;4.30;3.20;;;;;;;12.49;70.91;101581.63;4984140;28;20586;-72
2023/10/17 11:43:50;;;;;;;5.77;4.57;;;;;;;12.50;72.17;101577.88;4983027;28;20721;-72
2023/10/17 11:46:28;;;;;;;4.23;2.80;;;;;;;12.49;71.82;101576.34;4983530;28;20227;-71
2023/10/17 11:48:55;;;;;;;4.43;2.57;;;;;;;12.48;69.83;101581.94;4982473;28;20566;-71
2023/10/17 11:51:28;;;;;;;4.57;3.00;;;;;;;12.48;69.85;101574.00;4988680;28;20255;-71
2023/10/17 11:54:04;;;;;;;5.77;2.67;;;;;;;12.46;70.07;101579.59;4988488;28;20292;-71
2023/10/17 11:56:31;;;;;;;7.83;3.10;;;;;;;12.45;70.91;101569.31;4986830;28;20312;-71
2023/10/17 11:58:58;;;;;;;5.23;3.70;;;;;;;12.40;70.80;101564.97;4986015;28;20208;-71
2023/10/17 12:01:24;;;;;;;5.40;3.17;;;;;;;12.38;69.71;101559.19;4980890;28;20208;-71
2023/10/17 12:03:52;;;;;;;3.87;2.97;;;;;;;12.36;70.32;101561.38;4980774;28;20329;-71
2023/10/17 12:06:19;;;;;;;3.73;2.47;;;;;;;12.40;72.69;101557.03;4986769;28;20302;-71
2023/10/17 12:08:46;;;;;;;3.23;2.87;;;;;;;12.39;71.28;101554.69;4981727;28;20232;-72
2023/10/17 12:11:14;;;;;;;3.50;2.60;;;;;;;12.41;69.82;101552.47;4985378;28;20294;-71
2023/10/17 12:13:40;;;;;;;3.87;2.63;;;;;;;12.39;70.46;101552.03;4983183;28;20687;-72
2023/10/17 12:16:09;;;;;;;6.80;2.70;;;;;;;12.39;69.60;101550.16;4983441;28;20236;-71
2023/10/17 12:18:36;;;;;;;3.93;2.60;;;;;;;12.40;70.72;101553.59;4981739;28;20197;-72
2023/10/17 12:21:04;;;;;;;3.87;2.53;;;;;;;12.39;70.17;101552.03;4984485;28;20212;-71
2023/10/17 12:23:30;;;;;;;4.50;2.67;;;;;;;12.35;68.72;101549.22;4982722;28;20299;-71
2023/10/17 12:25:58;;;;;;;4.87;2.67;;;;;;;12.35;70.38;101549.22;4983872;28;20224;-71
2023/10/17 12:28:27;;;;;;;3.00;2.40;;;;;;;12.36;72.77;101550.78;4986639;28;20201;-71
2023/10/17 12:30:53;;;;;;;4.13;2.30;;;;;;;12.33;74.83;101559.38;4998366;28;20246;-71
2023/10/17 12:33:23;;;;;;;2.73;2.20;;;;;;;12.28;73.34;101548.94;4983247;28;20208;-71
2023/10/17 12:35:50;;;;;;;2.50;1.70;;;;;;;12.23;70.48;101548.31;4981194;28;20666;-71
2023/10/17 12:38:24;;;;;;;2.33;1.87;;;;;;;12.17;71.90;101539.72;4986418;28;20205;-71
2023/10/17 12:40:50;;;;;;;3.20;2.00;;;;;;;12.19;77.05;101545.50;4985613;28;20571;-71
2023/10/17 12:43:19;;;;;;;3.17;1.70;;;;;;;12.14;73.36;101545.66;4990412;28;20780;-71
2023/10/17 12:45:47;;;;;;;2.40;2.00;;;;;;;12.06;68.95;101535.09;4982048;28;20236;-72
2023/10/17 12:48:14;;;;;;;5.00;1.70;;;;;;;12.00;69.16;101531.03;4982767;28;20315;-71
2023/10/17 12:50:43;;;;;;;3.27;2.03;;;;;;;11.98;71.15;101527.91;4984691;28;20219;-70
2023/10/17 12:53:10;;;;;;;1.63;1.53;;;;;;;11.93;68.97;101517.47;4983656;28;20236;-71
2023/10/17 12:55:37;;;;;;;2.00;1.80;;;;;;;11.90;70.40;101520.75;4985894;28;20260;-71
2023/10/17 12:58:04;;;;;;;2.60;1.80;;;;;;;11.85;70.84;101516.38;4984866;28;20321;-72